sensor_id;sensor_type;location;lat;lon;timestamp;noise_LAeq;noise_LA_min;noise_LA_max;noise_LA01;noise_LA95
47923;Laerm;33688;44.354;9.228;2023-07-13T00:01:50;35.02;23.90;38.81;;
47923;Laerm;33688;44.354;9.228;2023-07-13T00:04:18;34.99;5.00;38.81;;
47923;Laerm;33688;44.354;9.228;2023-07-13T00:06:46;35.05;23.90;38.81;;
47923;Laerm;33688;44.354;9.228;2023-07-13T00:09:15;35.03;5.00;38.74;;
47923;Laerm;33688;44.354;9.228;2023-07-13T00:11:42;35.08;5.00;38.81;;
47923;Laerm;33688;44.354;9.228;2023-07-13T00:14:11;35.02;23.90;38.52;;
47923;Laerm;33688;44.354;9.228;2023-07-13T00:16:39;35.03;5.00;38.81;;
47923;Laerm;33688;44.354;9.228;2023-07-13T00:19:10;35.01;5.00;38.52;;
47923;Laerm;33688;44.354;9.228;2023-07-13T00:21:38;34.98;23.90;38.81;;
47923;Laerm;33688;44.354;9.228;2023-07-13T00:24:06;35.03;5.00;39.46;;
47923;Laerm;33688;44.354;9.228;2023-07-13T00:26:35;35.02;5.00;38.95;;
47923;Laerm;33688;44.354;9.228;2023-07-13T00:29:02;35.03;23.90;38.52;;
47923;Laerm;33688;44.354;9.228;2023-07-13T00:31:30;35.00;5.00;38.95;;
47923;Laerm;33688;44.354;9.228;2023-07-13T00:33:56;35.03;5.00;39.08;;
47923;Laerm;33688;44.354;9.228;2023-07-13T00:36:25;35.04;5.00;38.81;;
47923;Laerm;33688;44.354;9.228;2023-07-13T00:38:52;35.01;5.00;38.67;;
47923;Laerm;33688;44.354;9.228;2023-07-13T00:41:18;35.05;5.00;38.81;;
47923;Laerm;33688;44.354;9.228;2023-07-13T00:43:45;35.00;5.00;38.52;;
47923;Laerm;33688;44.354;9.228;2023-07-13T00:46:28;35.02;5.00;38.81;;
47923;Laerm;33688;44.354;9.228;2023-07-13T00:48:58;35.02;23.90;38.81;;
47923;Laerm;33688;44.354;9.228;2023-07-13T00:51:32;35.07;5.00;39.21;;
47923;Laerm;33688;44.354;9.228;2023-07-13T00:54:05;35.00;5.00;38.81;;
47923;Laerm;33688;44.354;9.228;2023-07-13T00:56:33;35.05;5.00;38.52;;
47923;Laerm;33688;44.354;9.228;2023-07-13T00:59:03;35.04;23.90;38.95;;
47923;Laerm;33688;44.354;9.228;2023-07-13T01:01:31;35.05;5.00;39.08;;
47923;Laerm;33688;44.354;9.228;2023-07-13T01:03:58;34.98;5.00;38.81;;
47923;Laerm;33688;44.354;9.228;2023-07-13T01:06:24;35.05;5.00;38.81;;
47923;Laerm;33688;44.354;9.228;2023-07-13T01:08:51;35.05;26.91;38.81;;
47923;Laerm;33688;44.354;9.228;2023-07-13T01:11:21;35.05;5.00;38.52;;
47923;Laerm;33688;44.354;9.228;2023-07-13T01:13:50;35.03;5.00;38.81;;
47923;Laerm;33688;44.354;9.228;2023-07-13T01:16:29;35.01;23.55;39.08;;
47923;Laerm;33688;44.354;9.228;2023-07-13T01:18:56;35.05;5.00;38.87;;
47923;Laerm;33688;44.354;9.228;2023-07-13T01:21:25;35.03;5.00;39.21;;
47923;Laerm;33688;44.354;9.228;2023-07-13T01:23:51;35.01;5.00;39.34;;
47923;Laerm;33688;44.354;9.228;2023-07-13T01:26:18;35.03;23.90;39.08;;
47923;Laerm;33688;44.354;9.228;2023-07-13T01:28:44;35.04;23.55;38.67;;
47923;Laerm;33688;44.354;9.228;2023-07-13T01:31:11;35.04;23.55;38.67;;
47923;Laerm;33688;44.354;9.228;2023-07-13T01:33:39;35.04;5.00;39.21;;
47923;Laerm;33688;44.354;9.228;2023-07-13T01:36:10;35.03;23.90;38.81;;
47923;Laerm;33688;44.354;9.228;2023-07-13T01:38:37;35.04;23.90;38.95;;
47923;Laerm;33688;44.354;9.228;2023-07-13T01:41:03;35.02;5.00;38.67;;
47923;Laerm;33688;44.354;9.228;2023-07-13T01:43:29;35.00;23.90;38.52;;
47923;Laerm;33688;44.354;9.228;2023-07-13T01:45:55;35.03;5.00;39.21;;
47923;Laerm;33688;44.354;9.228;2023-07-13T01:48:21;35.01;5.00;38.95;;
47923;Laerm;33688;44.354;9.228;2023-07-13T01:50:49;35.03;5.00;38.67;;
47923;Laerm;33688;44.354;9.228;2023-07-13T01:53:15;35.00;5.00;38.81;;
47923;Laerm;33688;44.354;9.228;2023-07-13T01:55:43;35.05;23.90;39.92;;
47923;Laerm;33688;44.354;9.228;2023-07-13T01:58:09;35.04;5.00;38.52;;
47923;Laerm;33688;44.354;9.228;2023-07-13T02:00:35;35.01;5.00;38.67;;
47923;Laerm;33688;44.354;9.228;2023-07-13T02:03:01;35.05;23.90;39.58;;
47923;Laerm;33688;44.354;9.228;2023-07-13T02:05:28;35.02;5.00;38.52;;
47923;Laerm;33688;44.354;9.228;2023-07-13T02:07:54;35.04;23.90;39.08;;
47923;Laerm;33688;44.354;9.228;2023-07-13T02:10:20;35.01;5.00;39.08;;
47923;Laerm;33688;44.354;9.228;2023-07-13T02:12:45;35.08;5.00;38.95;;
47923;Laerm;33688;44.354;9.228;2023-07-13T02:15:13;35.03;5.00;38.52;;
47923;Laerm;33688;44.354;9.228;2023-07-13T02:17:38;34.99;5.00;39.08;;
47923;Laerm;33688;44.354;9.228;2023-07-13T02:20:06;35.03;5.00;38.52;;
47923;Laerm;33688;44.354;9.228;2023-07-13T02:22:33;35.05;5.00;39.21;;
47923;Laerm;33688;44.354;9.228;2023-07-13T02:25:00;35.02;23.90;38.67;;
47923;Laerm;33688;44.354;9.228;2023-07-13T02:27:27;35.01;23.90;39.21;;
47923;Laerm;33688;44.354;9.228;2023-07-13T02:29:53;35.05;23.55;38.67;;
47923;Laerm;33688;44.354;9.228;2023-07-13T02:32:20;35.04;5.00;39.70;;
47923;Laerm;33688;44.354;9.228;2023-07-13T02:34:46;35.02;5.00;38.37;;
47923;Laerm;33688;44.354;9.228;2023-07-13T02:37:12;35.05;23.55;38.95;;
47923;Laerm;33688;44.354;9.228;2023-07-13T02:39:39;34.99;5.00;38.95;;
47923;Laerm;33688;44.354;9.228;2023-07-13T02:42:06;35.04;23.90;38.95;;
47923;Laerm;33688;44.354;9.228;2023-07-13T02:44:34;35.01;23.90;38.67;;
47923;Laerm;33688;44.354;9.228;2023-07-13T02:47:00;35.01;23.90;38.95;;
47923;Laerm;33688;44.354;9.228;2023-07-13T02:49:26;35.05;5.00;38.52;;
47923;Laerm;33688;44.354;9.228;2023-07-13T02:51:52;35.03;23.90;38.67;;
47923;Laerm;33688;44.354;9.228;2023-07-13T02:54:18;35.01;23.90;38.95;;
47923;Laerm;33688;44.354;9.228;2023-07-13T02:56:44;35.01;5.00;38.52;;
47923;Laerm;33688;44.354;9.228;2023-07-13T02:59:10;35.04;5.00;38.95;;
47923;Laerm;33688;44.354;9.228;2023-07-13T03:01:38;34.97;5.00;39.11;;
47923;Laerm;33688;44.354;9.228;2023-07-13T03:04:06;35.00;23.90;39.21;;
47923;Laerm;33688;44.354;9.228;2023-07-13T03:06:34;35.00;5.00;38.67;;
47923;Laerm;33688;44.354;9.228;2023-07-13T03:09:00;35.01;5.00;39.08;;
47923;Laerm;33688;44.354;9.228;2023-07-13T03:14:33;35.03;5.00;38.67;;
47923;Laerm;33688;44.354;9.228;2023-07-13T03:17:02;35.00;23.55;38.67;;
47923;Laerm;33688;44.354;9.228;2023-07-13T03:19:31;35.05;23.90;38.52;;
47923;Laerm;33688;44.354;9.228;2023-07-13T03:21:58;35.04;5.00;39.21;;
47923;Laerm;33688;44.354;9.228;2023-07-13T03:24:24;35.02;5.00;39.08;;
47923;Laerm;33688;44.354;9.228;2023-07-13T03:26:52;34.99;23.90;38.95;;
47923;Laerm;33688;44.354;9.228;2023-07-13T03:29:18;34.99;5.00;38.81;;
47923;Laerm;33688;44.354;9.228;2023-07-13T03:31:45;35.01;5.00;38.81;;
47923;Laerm;33688;44.354;9.228;2023-07-13T03:34:11;35.05;5.00;38.95;;
47923;Laerm;33688;44.354;9.228;2023-07-13T03:36:38;35.08;23.90;38.81;;
47923;Laerm;33688;44.354;9.228;2023-07-13T03:39:09;35.04;23.90;38.95;;
47923;Laerm;33688;44.354;9.228;2023-07-13T03:41:42;35.05;23.90;39.21;;
47923;Laerm;33688;44.354;9.228;2023-07-13T03:44:08;35.02;23.90;38.81;;
47923;Laerm;33688;44.354;9.228;2023-07-13T03:46:34;35.02;5.00;38.87;;
47923;Laerm;33688;44.354;9.228;2023-07-13T03:49:02;34.99;5.00;38.74;;
47923;Laerm;33688;44.354;9.228;2023-07-13T03:51:28;34.99;5.00;38.67;;
47923;Laerm;33688;44.354;9.228;2023-07-13T03:53:54;35.01;5.00;38.67;;
47923;Laerm;33688;44.354;9.228;2023-07-13T03:56:20;35.04;23.90;39.46;;
47923;Laerm;33688;44.354;9.228;2023-07-13T03:58:49;35.04;5.00;38.47;;
47923;Laerm;33688;44.354;9.228;2023-07-13T04:01:21;35.03;23.90;38.67;;
47923;Laerm;33688;44.354;9.228;2023-07-13T04:03:48;35.04;5.00;38.67;;
47923;Laerm;33688;44.354;9.228;2023-07-13T04:06:25;35.03;23.90;39.34;;
47923;Laerm;33688;44.354;9.228;2023-07-13T04:08:58;35.07;23.90;38.37;;
47923;Laerm;33688;44.354;9.228;2023-07-13T04:14:08;35.07;5.00;39.08;;
47923;Laerm;33688;44.354;9.228;2023-07-13T04:16:54;35.01;5.00;38.67;;
47923;Laerm;33688;44.354;9.228;2023-07-13T04:22:07;34.99;5.00;38.95;;
47923;Laerm;33688;44.354;9.228;2023-07-13T04:24:33;35.05;23.90;38.52;;
47923;Laerm;33688;44.354;9.228;2023-07-13T04:27:00;35.02;5.00;38.95;;
47923;Laerm;33688;44.354;9.228;2023-07-13T04:29:28;35.01;23.90;38.67;;
47923;Laerm;33688;44.354;9.228;2023-07-13T04:31:55;35.01;23.90;38.67;;
47923;Laerm;33688;44.354;9.228;2023-07-13T04:34:21;35.02;5.00;38.52;;
47923;Laerm;33688;44.354;9.228;2023-07-13T04:36:46;35.03;5.00;39.34;;
47923;Laerm;33688;44.354;9.228;2023-07-13T04:39:13;35.00;5.00;38.81;;
47923;Laerm;33688;44.354;9.228;2023-07-13T04:41:38;35.02;23.90;39.08;;
47923;Laerm;33688;44.354;9.228;2023-07-13T04:44:04;35.05;5.00;38.67;;
47923;Laerm;33688;44.354;9.228;2023-07-13T04:46:30;35.04;23.90;38.95;;
47923;Laerm;33688;44.354;9.228;2023-07-13T04:48:56;35.03;26.91;38.95;;
47923;Laerm;33688;44.354;9.228;2023-07-13T04:51:24;35.03;5.00;38.81;;
47923;Laerm;33688;44.354;9.228;2023-07-13T04:53:50;34.98;23.90;38.81;;
47923;Laerm;33688;44.354;9.228;2023-07-13T04:56:15;35.05;5.00;38.67;;
47923;Laerm;33688;44.354;9.228;2023-07-13T04:58:41;35.02;26.56;38.81;;
47923;Laerm;33688;44.354;9.228;2023-07-13T05:01:07;35.01;23.90;38.81;;
47923;Laerm;33688;44.354;9.228;2023-07-13T05:03:35;35.01;5.00;38.67;;
47923;Laerm;33688;44.354;9.228;2023-07-13T05:06:05;35.01;5.00;38.67;;
47923;Laerm;33688;44.354;9.228;2023-07-13T05:08:31;35.03;23.90;38.74;;
47923;Laerm;33688;44.354;9.228;2023-07-13T05:11:04;35.00;23.90;38.37;;
47923;Laerm;33688;44.354;9.228;2023-07-13T05:13:31;34.99;5.00;38.95;;
47923;Laerm;33688;44.354;9.228;2023-07-13T05:16:15;35.02;23.90;38.81;;
47923;Laerm;33688;44.354;9.228;2023-07-13T05:18:41;35.02;5.00;38.52;;
47923;Laerm;33688;44.354;9.228;2023-07-13T05:21:10;35.01;5.00;38.81;;
47923;Laerm;33688;44.354;9.228;2023-07-13T05:23:37;35.03;5.00;38.81;;
47923;Laerm;33688;44.354;9.228;2023-07-13T05:26:04;35.00;23.90;39.11;;
47923;Laerm;33688;44.354;9.228;2023-07-13T05:28:31;35.02;23.90;38.52;;
47923;Laerm;33688;44.354;9.228;2023-07-13T05:30:58;35.02;5.00;38.95;;
47923;Laerm;33688;44.354;9.228;2023-07-13T05:33:26;35.01;5.00;38.37;;
47923;Laerm;33688;44.354;9.228;2023-07-13T05:35:53;35.00;5.00;38.67;;
47923;Laerm;33688;44.354;9.228;2023-07-13T05:38:19;35.00;23.90;38.52;;
47923;Laerm;33688;44.354;9.228;2023-07-13T05:40:46;35.03;23.90;38.81;;
47923;Laerm;33688;44.354;9.228;2023-07-13T05:43:13;35.04;5.00;38.67;;
47923;Laerm;33688;44.354;9.228;2023-07-13T05:45:39;35.04;5.00;38.67;;
47923;Laerm;33688;44.354;9.228;2023-07-13T05:48:05;35.00;5.00;38.52;;
47923;Laerm;33688;44.354;9.228;2023-07-13T05:50:31;34.99;5.00;38.67;;
47923;Laerm;33688;44.354;9.228;2023-07-13T05:52:58;35.05;5.00;38.81;;
47923;Laerm;33688;44.354;9.228;2023-07-13T05:55:24;35.00;5.00;38.81;;
47923;Laerm;33688;44.354;9.228;2023-07-13T05:57:50;35.02;23.90;38.37;;
47923;Laerm;33688;44.354;9.228;2023-07-13T06:00:35;35.01;23.90;39.08;;
47923;Laerm;33688;44.354;9.228;2023-07-13T06:03:01;35.03;23.90;38.81;;
47923;Laerm;33688;44.354;9.228;2023-07-13T06:05:28;35.03;5.00;38.81;;
47923;Laerm;33688;44.354;9.228;2023-07-13T06:07:55;34.99;5.00;39.08;;
47923;Laerm;33688;44.354;9.228;2023-07-13T06:10:22;35.04;5.00;38.52;;
47923;Laerm;33688;44.354;9.228;2023-07-13T06:12:47;35.01;23.90;38.95;;
47923;Laerm;33688;44.354;9.228;2023-07-13T06:15:37;35.03;5.00;38.52;;
47923;Laerm;33688;44.354;9.228;2023-07-13T06:18:04;35.03;5.00;39.58;;
47923;Laerm;33688;44.354;9.228;2023-07-13T06:20:30;35.03;5.00;38.81;;
47923;Laerm;33688;44.354;9.228;2023-07-13T06:22:56;35.02;5.00;38.81;;
47923;Laerm;33688;44.354;9.228;2023-07-13T06:25:23;35.03;5.00;38.81;;
47923;Laerm;33688;44.354;9.228;2023-07-13T06:27:49;35.00;5.00;38.81;;
47923;Laerm;33688;44.354;9.228;2023-07-13T06:30:15;35.03;5.00;38.81;;
47923;Laerm;33688;44.354;9.228;2023-07-13T06:32:41;35.01;5.00;38.52;;
47923;Laerm;33688;44.354;9.228;2023-07-13T06:35:08;35.04;23.90;38.81;;
47923;Laerm;33688;44.354;9.228;2023-07-13T06:37:35;35.05;5.00;38.67;;
47923;Laerm;33688;44.354;9.228;2023-07-13T06:40:01;35.03;5.00;38.99;;
47923;Laerm;33688;44.354;9.228;2023-07-13T06:42:27;35.03;23.90;38.67;;
47923;Laerm;33688;44.354;9.228;2023-07-13T06:44:53;35.02;23.90;38.52;;
47923;Laerm;33688;44.354;9.228;2023-07-13T06:47:20;35.04;5.00;38.52;;
47923;Laerm;33688;44.354;9.228;2023-07-13T06:49:47;34.99;5.00;38.67;;
47923;Laerm;33688;44.354;9.228;2023-07-13T06:52:14;35.03;5.00;38.52;;
47923;Laerm;33688;44.354;9.228;2023-07-13T06:54:40;35.01;5.00;38.81;;
47923;Laerm;33688;44.354;9.228;2023-07-13T06:57:05;35.02;5.00;38.67;;
47923;Laerm;33688;44.354;9.228;2023-07-13T06:59:33;35.01;23.90;38.95;;
47923;Laerm;33688;44.354;9.228;2023-07-13T07:01:59;35.06;5.00;38.67;;
47923;Laerm;33688;44.354;9.228;2023-07-13T07:04:24;35.02;5.00;39.08;;
47923;Laerm;33688;44.354;9.228;2023-07-13T07:06:50;35.05;23.90;38.67;;
47923;Laerm;33688;44.354;9.228;2023-07-13T07:09:17;35.03;5.00;38.87;;
47923;Laerm;33688;44.354;9.228;2023-07-13T07:11:44;35.01;23.90;39.08;;
47923;Laerm;33688;44.354;9.228;2023-07-13T07:14:11;35.04;23.90;39.21;;
47923;Laerm;33688;44.354;9.228;2023-07-13T07:16:37;35.00;23.90;38.67;;
47923;Laerm;33688;44.354;9.228;2023-07-13T07:19:03;35.02;5.00;39.08;;
47923;Laerm;33688;44.354;9.228;2023-07-13T07:21:28;35.00;23.90;39.08;;
47923;Laerm;33688;44.354;9.228;2023-07-13T07:23:54;35.02;23.90;38.95;;
47923;Laerm;33688;44.354;9.228;2023-07-13T07:26:24;35.05;5.00;38.52;;
47923;Laerm;33688;44.354;9.228;2023-07-13T07:28:50;35.03;5.00;38.81;;
47923;Laerm;33688;44.354;9.228;2023-07-13T07:31:37;35.04;5.00;38.67;;
47923;Laerm;33688;44.354;9.228;2023-07-13T07:34:03;35.01;23.90;38.52;;
47923;Laerm;33688;44.354;9.228;2023-07-13T07:36:29;35.00;5.00;39.46;;
47923;Laerm;33688;44.354;9.228;2023-07-13T07:38:56;35.03;23.90;39.08;;
47923;Laerm;33688;44.354;9.228;2023-07-13T07:41:22;35.05;5.00;38.81;;
47923;Laerm;33688;44.354;9.228;2023-07-13T07:43:49;35.02;5.00;38.67;;
47923;Laerm;33688;44.354;9.228;2023-07-13T07:46:15;35.01;23.90;38.81;;
47923;Laerm;33688;44.354;9.228;2023-07-13T07:48:41;50.15;23.90;86.21;;
47923;Laerm;33688;44.354;9.228;2023-07-13T07:51:07;35.03;5.00;39.21;;
47923;Laerm;33688;44.354;9.228;2023-07-13T07:53:33;35.03;5.00;38.95;;
47923;Laerm;33688;44.354;9.228;2023-07-13T07:55:58;35.02;23.90;38.67;;
47923;Laerm;33688;44.354;9.228;2023-07-13T07:58:24;35.02;23.90;39.08;;
47923;Laerm;33688;44.354;9.228;2023-07-13T08:00:50;35.01;5.00;39.08;;
47923;Laerm;33688;44.354;9.228;2023-07-13T08:03:16;34.99;5.00;38.95;;
47923;Laerm;33688;44.354;9.228;2023-07-13T08:05:43;35.02;5.00;38.95;;
47923;Laerm;33688;44.354;9.228;2023-07-13T08:08:09;34.99;23.90;38.95;;
47923;Laerm;33688;44.354;9.228;2023-07-13T08:10:36;35.01;5.00;39.08;;
47923;Laerm;33688;44.354;9.228;2023-07-13T08:13:02;35.01;23.90;38.52;;
47923;Laerm;33688;44.354;9.228;2023-07-13T08:15:31;35.03;5.00;38.81;;
47923;Laerm;33688;44.354;9.228;2023-07-13T08:17:56;35.04;23.90;38.95;;
47923;Laerm;33688;44.354;9.228;2023-07-13T08:20:23;35.05;23.90;38.52;;
47923;Laerm;33688;44.354;9.228;2023-07-13T08:22:49;35.04;5.00;39.08;;
47923;Laerm;33688;44.354;9.228;2023-07-13T08:25:15;35.02;23.90;38.95;;
47923;Laerm;33688;44.354;9.228;2023-07-13T08:27:41;35.01;23.55;38.81;;
47923;Laerm;33688;44.354;9.228;2023-07-13T08:30:07;35.01;23.90;38.81;;
47923;Laerm;33688;44.354;9.228;2023-07-13T08:32:33;35.04;5.00;38.47;;
47923;Laerm;33688;44.354;9.228;2023-07-13T08:34:59;35.05;5.00;38.67;;
47923;Laerm;33688;44.354;9.228;2023-07-13T08:37:25;35.00;23.90;39.08;;
47923;Laerm;33688;44.354;9.228;2023-07-13T08:39:52;50.18;5.00;86.28;;
47923;Laerm;33688;44.354;9.228;2023-07-13T08:42:39;35.04;23.90;39.46;;
47923;Laerm;33688;44.354;9.228;2023-07-13T08:45:33;100.83;5.00;112.06;;
47923;Laerm;33688;44.354;9.228;2023-07-13T08:48:30;102.77;5.00;107.80;;
47923;Laerm;33688;44.354;9.228;2023-07-13T08:54:02;104.72;5.00;114.09;;
47923;Laerm;33688;44.354;9.228;2023-07-13T08:56:31;103.58;5.00;112.63;;
47923;Laerm;33688;44.354;9.228;2023-07-13T08:59:15;104.27;5.00;108.32;;
47923;Laerm;33688;44.354;9.228;2023-07-13T09:05:01;105.07;5.00;108.26;;
47923;Laerm;33688;44.354;9.228;2023-07-13T09:10:52;105.21;5.00;107.86;;
47923;Laerm;33688;44.354;9.228;2023-07-13T09:16:39;103.74;5.00;107.78;;
47923;Laerm;33688;44.354;9.228;2023-07-13T09:19:08;103.53;97.87;107.97;;
47923;Laerm;33688;44.354;9.228;2023-07-13T09:21:41;104.33;94.02;107.84;;
47923;Laerm;33688;44.354;9.228;2023-07-13T09:27:19;62.64;5.00;95.73;;
47923;Laerm;33688;44.354;9.228;2023-07-13T09:32:53;64.30;5.00;88.10;;
47923;Laerm;33688;44.354;9.228;2023-07-13T09:35:28;54.09;5.00;85.80;;
47923;Laerm;33688;44.354;9.228;2023-07-13T09:38:19;38.48;5.00;65.88;;
47923;Laerm;33688;44.354;9.228;2023-07-13T09:46:28;99.85;5.00;111.69;;
47923;Laerm;33688;44.354;9.228;2023-07-13T09:48:56;37.92;5.00;74.16;;
47923;Laerm;33688;44.354;9.228;2023-07-13T09:51:49;25.67;5.00;43.90;;
47923;Laerm;33688;44.354;9.228;2023-07-13T09:54:25;70.61;5.00;95.60;;
47923;Laerm;33688;44.354;9.228;2023-07-13T09:56:59;73.44;5.00;100.46;;
47923;Laerm;33688;44.354;9.228;2023-07-13T09:59:34;26.72;5.00;35.66;;
47923;Laerm;33688;44.354;9.228;2023-07-13T10:02:01;52.85;5.00;88.59;;
47923;Laerm;33688;44.354;9.228;2023-07-13T10:04:33;26.74;5.00;35.66;;
47923;Laerm;33688;44.354;9.228;2023-07-13T10:07:13;26.73;5.00;35.66;;
47923;Laerm;33688;44.354;9.228;2023-07-13T10:09:39;26.73;5.00;35.66;;
47923;Laerm;33688;44.354;9.228;2023-07-13T10:12:15;26.73;5.00;35.66;;
47923;Laerm;33688;44.354;9.228;2023-07-13T10:14:42;26.72;5.00;35.66;;
47923;Laerm;33688;44.354;9.228;2023-07-13T10:17:13;26.73;5.00;35.66;;
47923;Laerm;33688;44.354;9.228;2023-07-13T10:19:41;26.74;5.00;35.66;;
47923;Laerm;33688;44.354;9.228;2023-07-13T10:22:22;26.72;5.00;35.66;;
47923;Laerm;33688;44.354;9.228;2023-07-13T10:24:49;26.73;5.00;35.66;;
47923;Laerm;33688;44.354;9.228;2023-07-13T10:27:41;26.73;5.00;35.66;;
47923;Laerm;33688;44.354;9.228;2023-07-13T10:30:38;26.73;5.00;35.66;;
47923;Laerm;33688;44.354;9.228;2023-07-13T10:33:11;26.74;5.00;35.66;;
47923;Laerm;33688;44.354;9.228;2023-07-13T10:35:41;26.73;5.00;35.66;;
47923;Laerm;33688;44.354;9.228;2023-07-13T10:38:22;26.72;5.00;35.66;;
47923;Laerm;33688;44.354;9.228;2023-07-13T10:41:05;26.73;5.00;35.66;;
47923;Laerm;33688;44.354;9.228;2023-07-13T10:43:41;26.72;5.00;35.66;;
47923;Laerm;33688;44.354;9.228;2023-07-13T10:46:11;26.74;5.00;35.66;;
47923;Laerm;33688;44.354;9.228;2023-07-13T10:48:39;26.72;5.00;35.66;;
47923;Laerm;33688;44.354;9.228;2023-07-13T10:51:06;26.73;5.00;35.66;;
47923;Laerm;33688;44.354;9.228;2023-07-13T10:53:36;26.72;5.00;35.66;;
47923;Laerm;33688;44.354;9.228;2023-07-13T10:56:28;26.73;5.00;35.66;;
47923;Laerm;33688;44.354;9.228;2023-07-13T10:59:26;26.73;5.00;35.66;;
47923;Laerm;33688;44.354;9.228;2023-07-13T11:04:40;26.72;5.00;35.66;;
47923;Laerm;33688;44.354;9.228;2023-07-13T11:07:24;26.72;5.00;35.66;;
47923;Laerm;33688;44.354;9.228;2023-07-13T11:09:56;26.73;5.00;35.66;;
47923;Laerm;33688;44.354;9.228;2023-07-13T11:15:30;26.72;5.00;35.66;;
47923;Laerm;33688;44.354;9.228;2023-07-13T11:17:56;26.74;5.00;35.66;;
47923;Laerm;33688;44.354;9.228;2023-07-13T11:20:44;26.73;5.00;35.66;;
47923;Laerm;33688;44.354;9.228;2023-07-13T11:25:39;105.11;5.00;112.71;;
47923;Laerm;33688;44.354;9.228;2023-07-13T11:33:53;34.95;5.00;39.08;;
47923;Laerm;33688;44.354;9.228;2023-07-13T11:36:24;34.99;23.90;38.67;;
47923;Laerm;33688;44.354;9.228;2023-07-13T11:39:05;35.00;5.00;38.81;;
47923;Laerm;33688;44.354;9.228;2023-07-13T11:41:57;34.97;23.90;39.08;;
47923;Laerm;33688;44.354;9.228;2023-07-13T11:44:28;35.01;5.00;38.74;;
47923;Laerm;33688;44.354;9.228;2023-07-13T11:47:00;34.99;23.55;39.08;;
47923;Laerm;33688;44.354;9.228;2023-07-13T11:49:42;103.70;23.90;113.62;;
47923;Laerm;33688;44.354;9.228;2023-07-13T11:52:37;34.98;5.00;38.67;;
47923;Laerm;33688;44.354;9.228;2023-07-13T11:55:15;34.99;5.00;38.95;;
47923;Laerm;33688;44.354;9.228;2023-07-13T11:57:50;35.01;5.00;38.81;;
47923;Laerm;33688;44.354;9.228;2023-07-13T12:00:25;35.02;5.00;39.21;;
47923;Laerm;33688;44.354;9.228;2023-07-13T12:02:55;34.99;23.90;38.52;;
47923;Laerm;33688;44.354;9.228;2023-07-13T12:05:22;34.98;5.00;38.95;;
47923;Laerm;33688;44.354;9.228;2023-07-13T12:07:51;34.99;5.00;38.52;;
47923;Laerm;33688;44.354;9.228;2023-07-13T12:10:28;57.45;23.90;86.21;;
47923;Laerm;33688;44.354;9.228;2023-07-13T12:13:08;54.42;5.00;86.21;;
47923;Laerm;33688;44.354;9.228;2023-07-13T12:15:43;64.90;26.91;90.81;;
47923;Laerm;33688;44.354;9.228;2023-07-13T12:18:20;80.26;5.00;102.99;;
47923;Laerm;33688;44.354;9.228;2023-07-13T12:20:50;78.36;5.00;99.03;;
47923;Laerm;33688;44.354;9.228;2023-07-13T12:23:32;92.87;5.00;109.93;;
47923;Laerm;33688;44.354;9.228;2023-07-13T12:26:03;103.50;26.91;113.48;;
47923;Laerm;33688;44.354;9.228;2023-07-13T12:28:39;107.40;28.67;114.07;;
47923;Laerm;33688;44.354;9.228;2023-07-13T12:31:29;108.37;30.89;113.84;;
47923;Laerm;33688;44.354;9.228;2023-07-13T12:34:06;105.83;23.90;113.76;;
47923;Laerm;33688;44.354;9.228;2023-07-13T12:36:37;86.89;23.90;112.23;;
47923;Laerm;33688;44.354;9.228;2023-07-13T12:39:45;100.43;5.00;112.59;;
47923;Laerm;33688;44.354;9.228;2023-07-13T12:42:26;107.86;5.00;112.98;;
47923;Laerm;33688;44.354;9.228;2023-07-13T12:47:48;99.13;5.00;112.70;;
47923;Laerm;33688;44.354;9.228;2023-07-13T12:50:23;95.63;5.00;112.45;;
47923;Laerm;33688;44.354;9.228;2023-07-13T12:53:01;26.73;5.00;35.66;;
47923;Laerm;33688;44.354;9.228;2023-07-13T12:55:29;26.72;5.00;35.66;;
47923;Laerm;33688;44.354;9.228;2023-07-13T12:58:03;26.73;5.00;35.66;;
47923;Laerm;33688;44.354;9.228;2023-07-13T13:00:37;26.72;5.00;35.66;;
47923;Laerm;33688;44.354;9.228;2023-07-13T13:03:30;26.73;5.00;35.66;;
47923;Laerm;33688;44.354;9.228;2023-07-13T13:06:06;26.73;5.00;35.66;;
47923;Laerm;33688;44.354;9.228;2023-07-13T13:08:36;26.72;5.00;35.66;;
47923;Laerm;33688;44.354;9.228;2023-07-13T13:11:04;26.73;5.00;35.66;;
47923;Laerm;33688;44.354;9.228;2023-07-13T13:13:32;26.72;5.00;35.66;;
47923;Laerm;33688;44.354;9.228;2023-07-13T13:19:23;26.73;5.00;35.66;;
47923;Laerm;33688;44.354;9.228;2023-07-13T13:21:51;26.73;5.00;35.66;;
47923;Laerm;33688;44.354;9.228;2023-07-13T13:24:21;26.73;5.00;35.66;;
47923;Laerm;33688;44.354;9.228;2023-07-13T13:26:50;26.72;5.00;35.66;;
47923;Laerm;33688;44.354;9.228;2023-07-13T13:29:21;26.74;5.00;35.66;;
47923;Laerm;33688;44.354;9.228;2023-07-13T13:31:50;26.71;5.00;35.66;;
47923;Laerm;33688;44.354;9.228;2023-07-13T13:34:20;26.73;5.00;35.66;;
47923;Laerm;33688;44.354;9.228;2023-07-13T13:36:50;26.72;5.00;35.66;;
47923;Laerm;33688;44.354;9.228;2023-07-13T13:39:35;26.72;5.00;35.66;;
47923;Laerm;33688;44.354;9.228;2023-07-13T13:42:03;26.72;5.00;35.66;;
47923;Laerm;33688;44.354;9.228;2023-07-13T13:44:30;26.72;5.00;35.66;;
47923;Laerm;33688;44.354;9.228;2023-07-13T13:46:57;26.73;5.00;35.66;;
47923;Laerm;33688;44.354;9.228;2023-07-13T13:49:28;26.71;5.00;35.66;;
47923;Laerm;33688;44.354;9.228;2023-07-13T13:51:56;26.72;5.00;35.66;;
47923;Laerm;33688;44.354;9.228;2023-07-13T13:54:24;26.73;5.00;35.66;;
47923;Laerm;33688;44.354;9.228;2023-07-13T13:56:52;26.72;5.00;35.66;;
47923;Laerm;33688;44.354;9.228;2023-07-13T13:59:19;26.72;5.00;35.66;;
47923;Laerm;33688;44.354;9.228;2023-07-13T14:01:47;26.73;5.00;35.66;;
47923;Laerm;33688;44.354;9.228;2023-07-13T14:04:22;26.73;5.00;35.66;;
47923;Laerm;33688;44.354;9.228;2023-07-13T14:06:49;26.72;5.00;35.66;;
47923;Laerm;33688;44.354;9.228;2023-07-13T14:09:19;19.67;5.00;35.66;;
47923;Laerm;33688;44.354;9.228;2023-07-13T14:11:47;5.00;5.00;5.00;;
47923;Laerm;33688;44.354;9.228;2023-07-13T14:14:42;88.86;5.00;111.91;;
47923;Laerm;33688;44.354;9.228;2023-07-13T14:17:34;54.11;5.00;89.24;;
47923;Laerm;33688;44.354;9.228;2023-07-13T14:20:00;26.70;5.00;35.66;;
47923;Laerm;33688;44.354;9.228;2023-07-13T14:22:26;26.70;5.00;35.66;;
47923;Laerm;33688;44.354;9.228;2023-07-13T14:24:55;26.72;5.00;35.66;;
47923;Laerm;33688;44.354;9.228;2023-07-13T14:27:24;26.70;5.00;35.66;;
47923;Laerm;33688;44.354;9.228;2023-07-13T14:29:50;26.70;5.00;35.66;;
47923;Laerm;33688;44.354;9.228;2023-07-13T14:32:37;26.71;5.00;35.66;;
47923;Laerm;33688;44.354;9.228;2023-07-13T14:35:03;26.71;5.00;35.66;;
47923;Laerm;33688;44.354;9.228;2023-07-13T14:37:29;33.34;5.00;68.22;;
47923;Laerm;33688;44.354;9.228;2023-07-13T14:39:55;69.32;5.00;95.61;;
47923;Laerm;33688;44.354;9.228;2023-07-13T14:42:20;26.74;5.00;35.66;;
47923;Laerm;33688;44.354;9.228;2023-07-13T14:44:46;26.73;5.00;35.66;;
47923;Laerm;33688;44.354;9.228;2023-07-13T14:47:12;26.74;5.00;35.66;;
47923;Laerm;33688;44.354;9.228;2023-07-13T14:49:41;26.75;5.00;35.66;;
47923;Laerm;33688;44.354;9.228;2023-07-13T14:52:23;26.73;5.00;35.66;;
47923;Laerm;33688;44.354;9.228;2023-07-13T14:54:49;26.74;5.00;35.66;;
47923;Laerm;33688;44.354;9.228;2023-07-13T14:57:20;26.73;5.00;35.66;;
47923;Laerm;33688;44.354;9.228;2023-07-13T14:59:47;26.73;5.00;35.66;;
47923;Laerm;33688;44.354;9.228;2023-07-13T15:02:14;26.73;5.00;35.66;;